sensor_id;sensor_type;location;lat;lon;timestamp;P1;durP1;ratioP1;P2;durP2;ratioP2
68806;SDS011;55800;54.272;18.558;2022-09-09T00:00:59;4.15;;;2.03;;
68806;SDS011;55800;54.272;18.558;2022-09-09T00:06:14;12.25;;;2.25;;
68806;SDS011;55800;54.272;18.558;2022-09-09T00:08:53;4.15;;;2.00;;
68806;SDS011;55800;54.272;18.558;2022-09-09T00:11:30;4.80;;;2.03;;
68806;SDS011;55800;54.272;18.558;2022-09-09T00:14:11;5.20;;;2.30;;
68806;SDS011;55800;54.272;18.558;2022-09-09T00:16:47;4.15;;;2.08;;
68806;SDS011;55800;54.272;18.558;2022-09-09T00:19:24;5.50;;;2.88;;
68806;SDS011;55800;54.272;18.558;2022-09-09T00:22:01;6.20;;;2.17;;
68806;SDS011;55800;54.272;18.558;2022-09-09T00:24:42;4.15;;;2.30;;
68806;SDS011;55800;54.272;18.558;2022-09-09T00:27:16;7.60;;;2.40;;
68806;SDS011;55800;54.272;18.558;2022-09-09T00:29:51;4.65;;;1.83;;
68806;SDS011;55800;54.272;18.558;2022-09-09T00:32:24;5.13;;;2.10;;
68806;SDS011;55800;54.272;18.558;2022-09-09T00:35:01;5.03;;;2.13;;
68806;SDS011;55800;54.272;18.558;2022-09-09T00:37:31;4.75;;;2.20;;
68806;SDS011;55800;54.272;18.558;2022-09-09T00:40:02;3.25;;;1.77;;
68806;SDS011;55800;54.272;18.558;2022-09-09T00:42:45;3.53;;;2.22;;
68806;SDS011;55800;54.272;18.558;2022-09-09T00:45:28;3.80;;;2.28;;
68806;SDS011;55800;54.272;18.558;2022-09-09T00:48:11;5.13;;;1.95;;
68806;SDS011;55800;54.272;18.558;2022-09-09T00:50:45;6.70;;;2.05;;
68806;SDS011;55800;54.272;18.558;2022-09-09T00:53:29;4.97;;;2.20;;
68806;SDS011;55800;54.272;18.558;2022-09-09T00:56:09;6.47;;;2.40;;
68806;SDS011;55800;54.272;18.558;2022-09-09T00:58:42;6.72;;;2.03;;
68806;SDS011;55800;54.272;18.558;2022-09-09T01:01:17;4.70;;;2.33;;
68806;SDS011;55800;54.272;18.558;2022-09-09T01:03:46;3.83;;;1.90;;
68806;SDS011;55800;54.272;18.558;2022-09-09T01:06:22;6.25;;;2.22;;
68806;SDS011;55800;54.272;18.558;2022-09-09T01:09:01;4.18;;;2.20;;
68806;SDS011;55800;54.272;18.558;2022-09-09T01:11:52;4.07;;;2.60;;
68806;SDS011;55800;54.272;18.558;2022-09-09T01:14:35;5.75;;;2.55;;
68806;SDS011;55800;54.272;18.558;2022-09-09T01:17:12;6.00;;;2.42;;
68806;SDS011;55800;54.272;18.558;2022-09-09T01:20:02;5.65;;;2.03;;
68806;SDS011;55800;54.272;18.558;2022-09-09T01:22:47;6.30;;;2.58;;
68806;SDS011;55800;54.272;18.558;2022-09-09T01:25:57;4.93;;;2.08;;
68806;SDS011;55800;54.272;18.558;2022-09-09T01:28:41;3.47;;;1.67;;
68806;SDS011;55800;54.272;18.558;2022-09-09T01:31:17;6.88;;;2.25;;
68806;SDS011;55800;54.272;18.558;2022-09-09T01:33:48;4.40;;;1.70;;
68806;SDS011;55800;54.272;18.558;2022-09-09T01:36:20;5.10;;;1.60;;
68806;SDS011;55800;54.272;18.558;2022-09-09T01:38:54;2.60;;;1.50;;
68806;SDS011;55800;54.272;18.558;2022-09-09T01:41:25;4.97;;;1.92;;
68806;SDS011;55800;54.272;18.558;2022-09-09T01:44:01;4.20;;;2.15;;
68806;SDS011;55800;54.272;18.558;2022-09-09T01:46:33;4.07;;;1.92;;
68806;SDS011;55800;54.272;18.558;2022-09-09T01:49:03;6.95;;;2.47;;
68806;SDS011;55800;54.272;18.558;2022-09-09T01:51:35;9.60;;;2.35;;
68806;SDS011;55800;54.272;18.558;2022-09-09T01:54:09;5.05;;;2.13;;
68806;SDS011;55800;54.272;18.558;2022-09-09T01:56:43;4.78;;;2.30;;
68806;SDS011;55800;54.272;18.558;2022-09-09T01:59:27;3.30;;;1.80;;
68806;SDS011;55800;54.272;18.558;2022-09-09T02:02:09;3.30;;;2.47;;
68806;SDS011;55800;54.272;18.558;2022-09-09T02:04:48;4.10;;;1.70;;
68806;SDS011;55800;54.272;18.558;2022-09-09T02:07:27;5.43;;;2.17;;
68806;SDS011;55800;54.272;18.558;2022-09-09T02:10:11;4.38;;;2.10;;
68806;SDS011;55800;54.272;18.558;2022-09-09T02:12:55;5.97;;;2.20;;
68806;SDS011;55800;54.272;18.558;2022-09-09T02:15:32;6.05;;;2.30;;
68806;SDS011;55800;54.272;18.558;2022-09-09T02:18:07;3.67;;;1.92;;
68806;SDS011;55800;54.272;18.558;2022-09-09T02:20:40;4.32;;;2.90;;
68806;SDS011;55800;54.272;18.558;2022-09-09T02:23:11;4.57;;;2.17;;
68806;SDS011;55800;54.272;18.558;2022-09-09T02:25:45;4.82;;;2.00;;
68806;SDS011;55800;54.272;18.558;2022-09-09T02:28:23;5.70;;;2.30;;
68806;SDS011;55800;54.272;18.558;2022-09-09T02:30:56;5.57;;;2.25;;
68806;SDS011;55800;54.272;18.558;2022-09-09T02:33:33;4.47;;;2.22;;
68806;SDS011;55800;54.272;18.558;2022-09-09T02:36:06;5.78;;;2.10;;
68806;SDS011;55800;54.272;18.558;2022-09-09T02:38:40;7.93;;;1.90;;
68806;SDS011;55800;54.272;18.558;2022-09-09T02:41:19;6.05;;;2.03;;
68806;SDS011;55800;54.272;18.558;2022-09-09T02:43:55;6.30;;;2.28;;
68806;SDS011;55800;54.272;18.558;2022-09-09T02:46:27;5.50;;;2.40;;
68806;SDS011;55800;54.272;18.558;2022-09-09T02:49:08;4.15;;;2.20;;
68806;SDS011;55800;54.272;18.558;2022-09-09T02:51:45;7.20;;;2.58;;
68806;SDS011;55800;54.272;18.558;2022-09-09T02:54:23;6.28;;;2.00;;
68806;SDS011;55800;54.272;18.558;2022-09-09T02:57:01;8.77;;;2.20;;
68806;SDS011;55800;54.272;18.558;2022-09-09T02:59:39;3.92;;;2.00;;
68806;SDS011;55800;54.272;18.558;2022-09-09T03:02:08;5.38;;;1.85;;
68806;SDS011;55800;54.272;18.558;2022-09-09T03:04:39;6.30;;;2.05;;
68806;SDS011;55800;54.272;18.558;2022-09-09T03:07:12;7.32;;;2.05;;
68806;SDS011;55800;54.272;18.558;2022-09-09T03:09:43;5.28;;;2.03;;
68806;SDS011;55800;54.272;18.558;2022-09-09T03:12:12;6.28;;;2.45;;
68806;SDS011;55800;54.272;18.558;2022-09-09T03:17:13;5.15;;;2.10;;
68806;SDS011;55800;54.272;18.558;2022-09-09T03:19:51;6.00;;;2.35;;
68806;SDS011;55800;54.272;18.558;2022-09-09T03:22:22;5.40;;;2.92;;
68806;SDS011;55800;54.272;18.558;2022-09-09T03:24:53;7.80;;;2.72;;
68806;SDS011;55800;54.272;18.558;2022-09-09T03:27:23;10.57;;;4.88;;
68806;SDS011;55800;54.272;18.558;2022-09-09T03:29:54;10.43;;;3.97;;
68806;SDS011;55800;54.272;18.558;2022-09-09T03:32:26;10.38;;;3.80;;
68806;SDS011;55800;54.272;18.558;2022-09-09T03:34:56;10.93;;;4.18;;
68806;SDS011;55800;54.272;18.558;2022-09-09T03:39:54;9.07;;;3.78;;
68806;SDS011;55800;54.272;18.558;2022-09-09T03:42:23;9.32;;;4.70;;
68806;SDS011;55800;54.272;18.558;2022-09-09T03:44:56;8.15;;;3.50;;
68806;SDS011;55800;54.272;18.558;2022-09-09T03:47:26;9.90;;;4.18;;
68806;SDS011;55800;54.272;18.558;2022-09-09T03:50:03;8.27;;;4.05;;
68806;SDS011;55800;54.272;18.558;2022-09-09T03:52:36;10.00;;;4.10;;
68806;SDS011;55800;54.272;18.558;2022-09-09T03:55:12;9.07;;;4.28;;
68806;SDS011;55800;54.272;18.558;2022-09-09T03:57:41;10.73;;;4.25;;
68806;SDS011;55800;54.272;18.558;2022-09-09T04:00:13;9.40;;;4.95;;
68806;SDS011;55800;54.272;18.558;2022-09-09T04:02:43;12.43;;;4.05;;
68806;SDS011;55800;54.272;18.558;2022-09-09T04:05:14;15.68;;;4.70;;
68806;SDS011;55800;54.272;18.558;2022-09-09T04:07:46;10.80;;;4.80;;
68806;SDS011;55800;54.272;18.558;2022-09-09T04:10:15;8.98;;;4.00;;
68806;SDS011;55800;54.272;18.558;2022-09-09T04:12:44;7.07;;;4.10;;
68806;SDS011;55800;54.272;18.558;2022-09-09T04:15:17;9.75;;;5.00;;
68806;SDS011;55800;54.272;18.558;2022-09-09T04:17:46;8.75;;;4.53;;
68806;SDS011;55800;54.272;18.558;2022-09-09T04:20:16;14.23;;;5.03;;
68806;SDS011;55800;54.272;18.558;2022-09-09T04:22:46;10.63;;;4.50;;
68806;SDS011;55800;54.272;18.558;2022-09-09T04:25:15;13.77;;;5.20;;
68806;SDS011;55800;54.272;18.558;2022-09-09T04:27:44;9.25;;;5.07;;
68806;SDS011;55800;54.272;18.558;2022-09-09T04:30:14;10.52;;;5.00;;
68806;SDS011;55800;54.272;18.558;2022-09-09T04:32:45;10.85;;;5.78;;
68806;SDS011;55800;54.272;18.558;2022-09-09T04:35:14;9.65;;;4.20;;
68806;SDS011;55800;54.272;18.558;2022-09-09T04:37:44;13.02;;;5.03;;
68806;SDS011;55800;54.272;18.558;2022-09-09T04:40:14;8.20;;;4.13;;
68806;SDS011;55800;54.272;18.558;2022-09-09T04:42:45;10.57;;;4.35;;
68806;SDS011;55800;54.272;18.558;2022-09-09T04:45:14;9.82;;;4.05;;
68806;SDS011;55800;54.272;18.558;2022-09-09T04:47:45;9.68;;;3.95;;
68806;SDS011;55800;54.272;18.558;2022-09-09T04:50:15;10.32;;;3.92;;
68806;SDS011;55800;54.272;18.558;2022-09-09T04:52:46;10.43;;;4.55;;
68806;SDS011;55800;54.272;18.558;2022-09-09T04:55:15;9.82;;;4.50;;
68806;SDS011;55800;54.272;18.558;2022-09-09T04:57:45;8.93;;;4.90;;
68806;SDS011;55800;54.272;18.558;2022-09-09T05:00:16;13.65;;;5.32;;
68806;SDS011;55800;54.272;18.558;2022-09-09T05:02:48;9.73;;;4.32;;
68806;SDS011;55800;54.272;18.558;2022-09-09T05:05:17;10.60;;;4.65;;
68806;SDS011;55800;54.272;18.558;2022-09-09T05:07:48;8.40;;;3.72;;
68806;SDS011;55800;54.272;18.558;2022-09-09T05:10:16;8.52;;;4.05;;
68806;SDS011;55800;54.272;18.558;2022-09-09T05:12:51;7.95;;;3.70;;
68806;SDS011;55800;54.272;18.558;2022-09-09T05:15:25;7.85;;;3.50;;
68806;SDS011;55800;54.272;18.558;2022-09-09T05:17:56;7.47;;;3.10;;
68806;SDS011;55800;54.272;18.558;2022-09-09T05:20:29;8.70;;;3.63;;
68806;SDS011;55800;54.272;18.558;2022-09-09T05:22:58;5.80;;;3.83;;
68806;SDS011;55800;54.272;18.558;2022-09-09T05:25:30;8.98;;;3.17;;
68806;SDS011;55800;54.272;18.558;2022-09-09T05:27:58;5.75;;;3.10;;
68806;SDS011;55800;54.272;18.558;2022-09-09T05:33:00;7.65;;;3.40;;
68806;SDS011;55800;54.272;18.558;2022-09-09T05:35:29;7.75;;;4.00;;
68806;SDS011;55800;54.272;18.558;2022-09-09T05:37:59;5.60;;;3.17;;
68806;SDS011;55800;54.272;18.558;2022-09-09T05:40:28;7.80;;;3.53;;
68806;SDS011;55800;54.272;18.558;2022-09-09T05:42:59;10.00;;;3.63;;
68806;SDS011;55800;54.272;18.558;2022-09-09T05:45:31;8.32;;;3.65;;
68806;SDS011;55800;54.272;18.558;2022-09-09T05:48:00;10.43;;;3.63;;
68806;SDS011;55800;54.272;18.558;2022-09-09T05:52:58;9.45;;;4.05;;
68806;SDS011;55800;54.272;18.558;2022-09-09T05:55:29;7.70;;;3.85;;
68806;SDS011;55800;54.272;18.558;2022-09-09T05:57:58;8.60;;;3.47;;
68806;SDS011;55800;54.272;18.558;2022-09-09T06:00:28;7.40;;;3.30;;
68806;SDS011;55800;54.272;18.558;2022-09-09T06:03:00;9.07;;;3.20;;
68806;SDS011;55800;54.272;18.558;2022-09-09T06:05:30;7.32;;;3.33;;
68806;SDS011;55800;54.272;18.558;2022-09-09T06:10:28;7.90;;;3.15;;
68806;SDS011;55800;54.272;18.558;2022-09-09T06:12:57;10.07;;;3.65;;
68806;SDS011;55800;54.272;18.558;2022-09-09T06:15:26;7.90;;;3.10;;
68806;SDS011;55800;54.272;18.558;2022-09-09T06:17:57;6.90;;;2.90;;
68806;SDS011;55800;54.272;18.558;2022-09-09T06:20:27;6.78;;;3.03;;
68806;SDS011;55800;54.272;18.558;2022-09-09T06:22:58;7.45;;;3.40;;
68806;SDS011;55800;54.272;18.558;2022-09-09T06:25:27;6.50;;;3.47;;
68806;SDS011;55800;54.272;18.558;2022-09-09T06:27:56;7.75;;;2.65;;
68806;SDS011;55800;54.272;18.558;2022-09-09T06:30:25;4.53;;;2.55;;
68806;SDS011;55800;54.272;18.558;2022-09-09T06:32:55;8.23;;;3.00;;
68806;SDS011;55800;54.272;18.558;2022-09-09T06:35:26;4.53;;;2.78;;
68806;SDS011;55800;54.272;18.558;2022-09-09T06:37:55;7.82;;;3.00;;
68806;SDS011;55800;54.272;18.558;2022-09-09T06:40:25;6.18;;;2.83;;
68806;SDS011;55800;54.272;18.558;2022-09-09T06:42:54;6.38;;;2.65;;
68806;SDS011;55800;54.272;18.558;2022-09-09T06:45:38;10.50;;;3.47;;
68806;SDS011;55800;54.272;18.558;2022-09-09T06:48:07;6.70;;;2.80;;
68806;SDS011;55800;54.272;18.558;2022-09-09T06:50:38;6.15;;;2.67;;
68806;SDS011;55800;54.272;18.558;2022-09-09T06:53:07;5.05;;;2.72;;
68806;SDS011;55800;54.272;18.558;2022-09-09T06:55:36;4.95;;;3.03;;
68806;SDS011;55800;54.272;18.558;2022-09-09T06:58:07;5.75;;;2.50;;
68806;SDS011;55800;54.272;18.558;2022-09-09T07:00:37;4.28;;;2.35;;
68806;SDS011;55800;54.272;18.558;2022-09-09T07:03:06;6.88;;;3.72;;
68806;SDS011;55800;54.272;18.558;2022-09-09T07:08:06;7.47;;;3.10;;
68806;SDS011;55800;54.272;18.558;2022-09-09T07:10:35;4.05;;;2.40;;
68806;SDS011;55800;54.272;18.558;2022-09-09T07:13:04;5.90;;;2.75;;
68806;SDS011;55800;54.272;18.558;2022-09-09T07:15:34;6.45;;;3.00;;
68806;SDS011;55800;54.272;18.558;2022-09-09T07:18:03;8.05;;;3.40;;
68806;SDS011;55800;54.272;18.558;2022-09-09T07:23:03;5.47;;;2.50;;
68806;SDS011;55800;54.272;18.558;2022-09-09T07:25:32;4.72;;;2.88;;
68806;SDS011;55800;54.272;18.558;2022-09-09T07:30:30;4.57;;;2.90;;
68806;SDS011;55800;54.272;18.558;2022-09-09T07:32:59;7.38;;;3.25;;
68806;SDS011;55800;54.272;18.558;2022-09-09T07:35:30;5.63;;;2.90;;
68806;SDS011;55800;54.272;18.558;2022-09-09T07:38:00;3.78;;;2.08;;
68806;SDS011;55800;54.272;18.558;2022-09-09T07:40:31;5.38;;;2.88;;
68806;SDS011;55800;54.272;18.558;2022-09-09T07:43:02;6.90;;;2.63;;
68806;SDS011;55800;54.272;18.558;2022-09-09T07:45:33;5.32;;;2.47;;
68806;SDS011;55800;54.272;18.558;2022-09-09T07:48:03;5.32;;;2.65;;
68806;SDS011;55800;54.272;18.558;2022-09-09T07:50:33;6.20;;;3.10;;
68806;SDS011;55800;54.272;18.558;2022-09-09T07:53:03;5.07;;;2.78;;
68806;SDS011;55800;54.272;18.558;2022-09-09T07:55:33;6.80;;;2.88;;
68806;SDS011;55800;54.272;18.558;2022-09-09T07:58:02;6.13;;;2.67;;
68806;SDS011;55800;54.272;18.558;2022-09-09T08:00:31;6.60;;;2.90;;
68806;SDS011;55800;54.272;18.558;2022-09-09T08:08:00;7.18;;;2.75;;
68806;SDS011;55800;54.272;18.558;2022-09-09T08:10:32;6.13;;;3.22;;
68806;SDS011;55800;54.272;18.558;2022-09-09T08:13:01;7.30;;;3.42;;
68806;SDS011;55800;54.272;18.558;2022-09-09T08:15:47;5.90;;;3.38;;
68806;SDS011;55800;54.272;18.558;2022-09-09T08:18:18;5.57;;;4.10;;
68806;SDS011;55800;54.272;18.558;2022-09-09T08:20:49;5.15;;;3.00;;
68806;SDS011;55800;54.272;18.558;2022-09-09T08:23:18;5.47;;;3.08;;
68806;SDS011;55800;54.272;18.558;2022-09-09T08:25:49;4.82;;;2.53;;
68806;SDS011;55800;54.272;18.558;2022-09-09T08:28:18;6.00;;;3.42;;
68806;SDS011;55800;54.272;18.558;2022-09-09T08:30:47;5.35;;;2.90;;
68806;SDS011;55800;54.272;18.558;2022-09-09T08:33:18;5.85;;;2.90;;
68806;SDS011;55800;54.272;18.558;2022-09-09T08:35:49;5.15;;;3.35;;
68806;SDS011;55800;54.272;18.558;2022-09-09T08:38:20;6.07;;;3.38;;
68806;SDS011;55800;54.272;18.558;2022-09-09T08:40:50;8.15;;;3.00;;
68806;SDS011;55800;54.272;18.558;2022-09-09T08:43:27;4.93;;;2.80;;
68806;SDS011;55800;54.272;18.558;2022-09-09T08:46:00;6.63;;;3.08;;
68806;SDS011;55800;54.272;18.558;2022-09-09T08:48:48;5.25;;;3.35;;
68806;SDS011;55800;54.272;18.558;2022-09-09T08:51:25;5.30;;;3.25;;
68806;SDS011;55800;54.272;18.558;2022-09-09T08:53:58;5.55;;;3.42;;
68806;SDS011;55800;54.272;18.558;2022-09-09T08:56:33;4.63;;;3.00;;
68806;SDS011;55800;54.272;18.558;2022-09-09T08:59:03;5.20;;;3.05;;
68806;SDS011;55800;54.272;18.558;2022-09-09T09:01:39;6.50;;;3.78;;
68806;SDS011;55800;54.272;18.558;2022-09-09T09:07:31;5.40;;;2.75;;
68806;SDS011;55800;54.272;18.558;2022-09-09T09:10:10;4.30;;;2.50;;
68806;SDS011;55800;54.272;18.558;2022-09-09T09:13:09;7.97;;;3.30;;
68806;SDS011;55800;54.272;18.558;2022-09-09T09:15:43;6.30;;;3.10;;
68806;SDS011;55800;54.272;18.558;2022-09-09T09:18:15;6.03;;;2.95;;
68806;SDS011;55800;54.272;18.558;2022-09-09T09:20:49;5.88;;;3.08;;
68806;SDS011;55800;54.272;18.558;2022-09-09T09:25:59;5.65;;;2.70;;
68806;SDS011;55800;54.272;18.558;2022-09-09T09:28:31;5.15;;;3.17;;
68806;SDS011;55800;54.272;18.558;2022-09-09T09:31:10;6.43;;;2.85;;
68806;SDS011;55800;54.272;18.558;2022-09-09T09:33:46;6.10;;;3.38;;
68806;SDS011;55800;54.272;18.558;2022-09-09T09:36:19;6.13;;;2.80;;
68806;SDS011;55800;54.272;18.558;2022-09-09T09:38:53;7.15;;;3.92;;
68806;SDS011;55800;54.272;18.558;2022-09-09T09:41:44;6.03;;;2.90;;
68806;SDS011;55800;54.272;18.558;2022-09-09T09:44:26;8.20;;;3.42;;
68806;SDS011;55800;54.272;18.558;2022-09-09T09:47:06;5.65;;;3.20;;
68806;SDS011;55800;54.272;18.558;2022-09-09T09:49:36;5.65;;;3.20;;
68806;SDS011;55800;54.272;18.558;2022-09-09T09:52:06;7.25;;;3.35;;
68806;SDS011;55800;54.272;18.558;2022-09-09T09:54:42;6.30;;;3.53;;
68806;SDS011;55800;54.272;18.558;2022-09-09T09:57:11;6.57;;;3.42;;
68806;SDS011;55800;54.272;18.558;2022-09-09T09:59:47;6.82;;;3.35;;
68806;SDS011;55800;54.272;18.558;2022-09-09T10:02:23;6.18;;;3.88;;
68806;SDS011;55800;54.272;18.558;2022-09-09T10:05:06;11.15;;;4.45;;
68806;SDS011;55800;54.272;18.558;2022-09-09T10:07:42;7.88;;;4.03;;
68806;SDS011;55800;54.272;18.558;2022-09-09T10:10:15;6.35;;;4.45;;
68806;SDS011;55800;54.272;18.558;2022-09-09T10:12:55;10.10;;;4.57;;
68806;SDS011;55800;54.272;18.558;2022-09-09T10:15:34;10.40;;;4.57;;
68806;SDS011;55800;54.272;18.558;2022-09-09T10:18:15;7.47;;;4.72;;
68806;SDS011;55800;54.272;18.558;2022-09-09T10:21:06;5.80;;;3.80;;
68806;SDS011;55800;54.272;18.558;2022-09-09T10:23:53;7.88;;;4.63;;
68806;SDS011;55800;54.272;18.558;2022-09-09T10:26:39;7.28;;;4.38;;
68806;SDS011;55800;54.272;18.558;2022-09-09T10:32:30;10.18;;;8.10;;
68806;SDS011;55800;54.272;18.558;2022-09-09T10:35:11;8.70;;;5.07;;
68806;SDS011;55800;54.272;18.558;2022-09-09T10:37:51;8.85;;;4.97;;
68806;SDS011;55800;54.272;18.558;2022-09-09T10:40:42;6.18;;;4.53;;
68806;SDS011;55800;54.272;18.558;2022-09-09T10:43:35;8.50;;;4.40;;
68806;SDS011;55800;54.272;18.558;2022-09-09T10:46:29;8.98;;;4.80;;
68806;SDS011;55800;54.272;18.558;2022-09-09T10:49:08;7.95;;;5.10;;
68806;SDS011;55800;54.272;18.558;2022-09-09T10:51:51;6.95;;;4.63;;
68806;SDS011;55800;54.272;18.558;2022-09-09T10:54:33;8.55;;;5.07;;
68806;SDS011;55800;54.272;18.558;2022-09-09T10:57:17;8.45;;;6.18;;
68806;SDS011;55800;54.272;18.558;2022-09-09T11:02:27;8.25;;;5.05;;
68806;SDS011;55800;54.272;18.558;2022-09-09T11:04:59;7.32;;;5.20;;
68806;SDS011;55800;54.272;18.558;2022-09-09T11:07:36;10.30;;;5.80;;
68806;SDS011;55800;54.272;18.558;2022-09-09T11:10:15;8.18;;;5.75;;
68806;SDS011;55800;54.272;18.558;2022-09-09T11:12:53;8.25;;;5.32;;
68806;SDS011;55800;54.272;18.558;2022-09-09T11:15:28;8.55;;;5.15;;
68806;SDS011;55800;54.272;18.558;2022-09-09T11:18:08;9.85;;;5.22;;
68806;SDS011;55800;54.272;18.558;2022-09-09T11:20:42;9.80;;;5.88;;
68806;SDS011;55800;54.272;18.558;2022-09-09T11:23:15;9.35;;;6.40;;
68806;SDS011;55800;54.272;18.558;2022-09-09T11:25:50;9.75;;;7.10;;
68806;SDS011;55800;54.272;18.558;2022-09-09T11:28:27;11.98;;;5.97;;
68806;SDS011;55800;54.272;18.558;2022-09-09T11:31:13;11.55;;;6.13;;
68806;SDS011;55800;54.272;18.558;2022-09-09T11:33:58;9.20;;;5.97;;
68806;SDS011;55800;54.272;18.558;2022-09-09T11:36:46;10.95;;;7.28;;
68806;SDS011;55800;54.272;18.558;2022-09-09T11:39:36;12.30;;;6.47;;
68806;SDS011;55800;54.272;18.558;2022-09-09T11:42:16;9.93;;;6.47;;
68806;SDS011;55800;54.272;18.558;2022-09-09T11:44:47;9.90;;;5.88;;
68806;SDS011;55800;54.272;18.558;2022-09-09T11:47:20;10.85;;;6.93;;
68806;SDS011;55800;54.272;18.558;2022-09-09T11:50:06;10.27;;;6.50;;
68806;SDS011;55800;54.272;18.558;2022-09-09T11:52:39;8.75;;;6.15;;
68806;SDS011;55800;54.272;18.558;2022-09-09T11:55:24;8.68;;;6.18;;
68806;SDS011;55800;54.272;18.558;2022-09-09T11:57:57;10.23;;;5.97;;
68806;SDS011;55800;54.272;18.558;2022-09-09T12:00:29;12.60;;;6.95;;
68806;SDS011;55800;54.272;18.558;2022-09-09T12:03:02;8.73;;;5.72;;
68806;SDS011;55800;54.272;18.558;2022-09-09T12:05:38;11.73;;;6.55;;
68806;SDS011;55800;54.272;18.558;2022-09-09T12:08:15;13.95;;;7.68;;
68806;SDS011;55800;54.272;18.558;2022-09-09T12:10:53;12.32;;;6.30;;
68806;SDS011;55800;54.272;18.558;2022-09-09T12:13:24;14.77;;;6.47;;
68806;SDS011;55800;54.272;18.558;2022-09-09T12:15:55;10.52;;;6.40;;
68806;SDS011;55800;54.272;18.558;2022-09-09T12:18:31;10.25;;;6.22;;
68806;SDS011;55800;54.272;18.558;2022-09-09T12:21:03;13.63;;;6.85;;
68806;SDS011;55800;54.272;18.558;2022-09-09T12:23:42;17.45;;;6.45;;
68806;SDS011;55800;54.272;18.558;2022-09-09T12:26:22;14.38;;;7.20;;
68806;SDS011;55800;54.272;18.558;2022-09-09T12:29:02;10.32;;;6.45;;
68806;SDS011;55800;54.272;18.558;2022-09-09T12:31:40;8.38;;;6.22;;
68806;SDS011;55800;54.272;18.558;2022-09-09T12:34:17;9.93;;;6.63;;
68806;SDS011;55800;54.272;18.558;2022-09-09T12:36:58;11.77;;;7.47;;
68806;SDS011;55800;54.272;18.558;2022-09-09T12:39:34;11.60;;;7.47;;
68806;SDS011;55800;54.272;18.558;2022-09-09T12:42:15;10.13;;;7.15;;
68806;SDS011;55800;54.272;18.558;2022-09-09T12:44:52;10.65;;;6.60;;
68806;SDS011;55800;54.272;18.558;2022-09-09T12:47:23;15.25;;;7.30;;
68806;SDS011;55800;54.272;18.558;2022-09-09T12:50:10;9.20;;;6.40;;
68806;SDS011;55800;54.272;18.558;2022-09-09T12:52:45;16.25;;;8.18;;
68806;SDS011;55800;54.272;18.558;2022-09-09T12:55:18;14.65;;;7.10;;
68806;SDS011;55800;54.272;18.558;2022-09-09T12:57:51;9.90;;;6.70;;
68806;SDS011;55800;54.272;18.558;2022-09-09T13:02:51;12.23;;;6.88;;
68806;SDS011;55800;54.272;18.558;2022-09-09T13:05:22;10.95;;;7.07;;
68806;SDS011;55800;54.272;18.558;2022-09-09T13:08:00;11.88;;;7.97;;
68806;SDS011;55800;54.272;18.558;2022-09-09T13:10:32;12.05;;;7.90;;
68806;SDS011;55800;54.272;18.558;2022-09-09T13:13:21;12.60;;;6.93;;
68806;SDS011;55800;54.272;18.558;2022-09-09T13:15:53;12.02;;;7.70;;
68806;SDS011;55800;54.272;18.558;2022-09-09T13:18:24;16.40;;;7.97;;
68806;SDS011;55800;54.272;18.558;2022-09-09T13:20:55;12.98;;;8.23;;
68806;SDS011;55800;54.272;18.558;2022-09-09T13:23:26;14.30;;;7.97;;
68806;SDS011;55800;54.272;18.558;2022-09-09T13:26:00;13.52;;;8.35;;
68806;SDS011;55800;54.272;18.558;2022-09-09T13:28:31;12.98;;;7.07;;
68806;SDS011;55800;54.272;18.558;2022-09-09T13:31:02;14.55;;;7.55;;
68806;SDS011;55800;54.272;18.558;2022-09-09T13:33:34;12.73;;;8.18;;
68806;SDS011;55800;54.272;18.558;2022-09-09T13:36:05;10.55;;;7.93;;
68806;SDS011;55800;54.272;18.558;2022-09-09T13:38:36;14.23;;;8.93;;
68806;SDS011;55800;54.272;18.558;2022-09-09T13:41:10;14.38;;;9.07;;
68806;SDS011;55800;54.272;18.558;2022-09-09T13:43:48;13.27;;;7.60;;
68806;SDS011;55800;54.272;18.558;2022-09-09T13:48:54;12.18;;;8.65;;
68806;SDS011;55800;54.272;18.558;2022-09-09T13:51:28;18.88;;;9.05;;
68806;SDS011;55800;54.272;18.558;2022-09-09T13:54:03;13.90;;;8.18;;
68806;SDS011;55800;54.272;18.558;2022-09-09T13:56:36;14.73;;;8.52;;
68806;SDS011;55800;54.272;18.558;2022-09-09T13:59:09;13.02;;;8.35;;
68806;SDS011;55800;54.272;18.558;2022-09-09T14:01:40;18.13;;;9.13;;
68806;SDS011;55800;54.272;18.558;2022-09-09T14:04:09;13.20;;;8.38;;
68806;SDS011;55800;54.272;18.558;2022-09-09T14:06:38;11.93;;;8.13;;
68806;SDS011;55800;54.272;18.558;2022-09-09T14:09:10;12.02;;;7.70;;
68806;SDS011;55800;54.272;18.558;2022-09-09T14:11:42;13.85;;;8.65;;
68806;SDS011;55800;54.272;18.558;2022-09-09T14:14:11;13.07;;;8.43;;
68806;SDS011;55800;54.272;18.558;2022-09-09T14:16:41;13.20;;;8.00;;
68806;SDS011;55800;54.272;18.558;2022-09-09T14:19:10;16.70;;;9.48;;
68806;SDS011;55800;54.272;18.558;2022-09-09T14:21:39;12.68;;;8.25;;
68806;SDS011;55800;54.272;18.558;2022-09-09T14:24:08;14.85;;;8.60;;
68806;SDS011;55800;54.272;18.558;2022-09-09T14:26:37;13.90;;;7.90;;
68806;SDS011;55800;54.272;18.558;2022-09-09T14:29:07;18.48;;;8.27;;
68806;SDS011;55800;54.272;18.558;2022-09-09T14:31:36;13.88;;;8.57;;
68806;SDS011;55800;54.272;18.558;2022-09-09T14:34:05;14.60;;;9.45;;
68806;SDS011;55800;54.272;18.558;2022-09-09T14:39:03;16.40;;;10.23;;
68806;SDS011;55800;54.272;18.558;2022-09-09T14:41:32;13.52;;;9.07;;
68806;SDS011;55800;54.272;18.558;2022-09-09T14:44:01;12.85;;;9.30;;
68806;SDS011;55800;54.272;18.558;2022-09-09T14:46:32;14.15;;;9.57;;
68806;SDS011;55800;54.272;18.558;2022-09-09T14:49:00;13.52;;;9.18;;
68806;SDS011;55800;54.272;18.558;2022-09-09T14:51:30;16.25;;;9.32;;
68806;SDS011;55800;54.272;18.558;2022-09-09T14:53:59;17.35;;;10.77;;
68806;SDS011;55800;54.272;18.558;2022-09-09T14:59:01;16.20;;;10.00;;
68806;SDS011;55800;54.272;18.558;2022-09-09T15:01:31;15.60;;;10.73;;
68806;SDS011;55800;54.272;18.558;2022-09-09T15:04:01;15.93;;;10.88;;
68806;SDS011;55800;54.272;18.558;2022-09-09T15:06:33;17.60;;;10.48;;
68806;SDS011;55800;54.272;18.558;2022-09-09T15:09:05;17.63;;;11.73;;
68806;SDS011;55800;54.272;18.558;2022-09-09T15:14:05;18.20;;;11.35;;
68806;SDS011;55800;54.272;18.558;2022-09-09T15:16:37;16.73;;;9.85;;
68806;SDS011;55800;54.272;18.558;2022-09-09T15:19:07;18.02;;;10.50;;
68806;SDS011;55800;54.272;18.558;2022-09-09T15:21:37;18.02;;;11.18;;
68806;SDS011;55800;54.272;18.558;2022-09-09T15:24:06;16.25;;;11.70;;
68806;SDS011;55800;54.272;18.558;2022-09-09T15:26:35;18.77;;;11.48;;
68806;SDS011;55800;54.272;18.558;2022-09-09T15:29:05;15.65;;;10.68;;
68806;SDS011;55800;54.272;18.558;2022-09-09T15:34:06;21.95;;;12.10;;
68806;SDS011;55800;54.272;18.558;2022-09-09T15:36:36;18.58;;;11.40;;
68806;SDS011;55800;54.272;18.558;2022-09-09T15:39:06;17.30;;;11.88;;
68806;SDS011;55800;54.272;18.558;2022-09-09T15:41:39;19.02;;;10.82;;
68806;SDS011;55800;54.272;18.558;2022-09-09T15:44:09;17.90;;;10.75;;
68806;SDS011;55800;54.272;18.558;2022-09-09T15:46:40;20.38;;;11.30;;
68806;SDS011;55800;54.272;18.558;2022-09-09T15:49:12;17.77;;;12.13;;
68806;SDS011;55800;54.272;18.558;2022-09-09T15:51:42;23.45;;;13.02;;
68806;SDS011;55800;54.272;18.558;2022-09-09T15:54:13;17.77;;;11.70;;
68806;SDS011;55800;54.272;18.558;2022-09-09T15:56:45;19.88;;;11.10;;
68806;SDS011;55800;54.272;18.558;2022-09-09T15:59:15;19.65;;;12.35;;
68806;SDS011;55800;54.272;18.558;2022-09-09T16:04:18;20.52;;;13.20;;